Time;durP1;ratioP1;P1;durP2;ratioP2;P2;SDS_P1;SDS_P2;PMS_P1;PMS_P2;Temp;Humidity;BMP_temperature;BMP_pressure;BME280_temperature;BME280_humidity;BME280_pressure;Samples;Min_cycle;Max_cycle;Signal;HPM_P1;HPM_P2
2023/07/13 00:02:17;;;;;;;17.13;3.33;;;18.00;99.90;;;;;;5071476;28;20048;-46
2023/07/13 00:04:42;;;;;;;12.23;2.70;;;18.00;99.90;;;;;;5071189;28;20036;-49
2023/07/13 00:07:09;;;;;;;9.40;2.40;;;18.00;99.90;;;;;;5071231;28;20135;-52
2023/07/13 00:09:34;;;;;;;14.82;2.70;;;18.00;99.90;;;;;;5070884;28;20041;-51
2023/07/13 00:12:02;;;;;;;14.35;3.00;;;18.00;99.90;;;;;;5070814;28;20040;-48
2023/07/13 00:14:29;;;;;;;9.43;2.92;;;17.90;99.90;;;;;;5070860;28;20124;-48
2023/07/13 00:16:55;;;;;;;9.90;2.58;;;17.90;99.90;;;;;;5070979;28;20039;-51
2023/07/13 00:19:21;;;;;;;8.25;2.53;;;17.90;99.90;;;;;;5070445;28;20043;-52
2023/07/13 00:21:46;;;;;;;10.68;2.67;;;17.80;99.90;;;;;;5070904;28;20032;-47
2023/07/13 00:24:18;;;;;;;8.60;2.20;;;17.80;99.90;;;;;;5069762;28;20412;-50
2023/07/13 00:26:47;;;;;;;11.20;2.80;;;17.70;99.90;;;;;;5070848;28;20469;-49
2023/07/13 00:29:13;;;;;;;9.25;2.65;;;17.70;99.90;;;;;;5070859;28;20036;-49
2023/07/13 00:31:38;;;;;;;10.38;2.50;;;17.60;99.90;;;;;;5070149;28;20387;-48
2023/07/13 00:34:04;;;;;;;14.07;3.05;;;17.60;99.90;;;;;;5068835;28;20043;-48
2023/07/13 00:36:31;;;;;;;9.73;3.00;;;17.70;99.90;;;;;;5070500;28;20044;-48
2023/07/13 00:38:56;;;;;;;12.48;2.78;;;17.60;99.90;;;;;;5070733;28;20040;-49
2023/07/13 00:41:22;;;;;;;8.18;2.38;;;17.60;99.90;;;;;;5070910;28;20036;-51
2023/07/13 00:43:48;;;;;;;10.85;2.53;;;17.60;99.90;;;;;;5070630;28;20075;-49
2023/07/13 00:46:22;;;;;;;13.45;3.00;;;17.60;99.90;;;;;;5069119;28;20054;-47
2023/07/13 00:48:48;;;;;;;12.32;2.53;;;17.60;99.90;;;;;;5070252;28;20048;-47
2023/07/13 00:51:18;;;;;;;10.48;2.60;;;17.60;99.90;;;;;;5070579;28;20044;-48
2023/07/13 00:53:44;;;;;;;7.70;2.20;;;17.60;99.90;;;;;;5070863;28;20059;-46
2023/07/13 00:56:11;;;;;;;10.80;2.70;;;17.60;99.90;;;;;;5070560;28;20033;-51
2023/07/13 00:58:36;;;;;;;10.02;2.85;;;17.60;99.90;;;;;;5070923;28;20116;-50
2023/07/13 01:01:02;;;;;;;12.35;2.63;;;17.60;99.90;;;;;;5069024;28;20120;-50
2023/07/13 01:03:29;;;;;;;11.60;2.65;;;17.50;99.90;;;;;;5070485;28;20036;-47
2023/07/13 01:05:55;;;;;;;8.18;2.60;;;17.50;99.90;;;;;;5070405;28;20128;-51
2023/07/13 01:08:21;;;;;;;12.05;3.10;;;17.40;99.90;;;;;;5070717;28;20543;-49
2023/07/13 01:10:57;;;;;;;7.78;2.30;;;17.40;99.90;;;;;;5070503;28;20048;-49
2023/07/13 01:13:24;;;;;;;9.48;3.05;;;17.40;99.90;;;;;;5070616;28;20044;-50
2023/07/13 01:15:51;;;;;;;9.93;2.60;;;17.30;99.90;;;;;;5070416;28;20036;-46
2023/07/13 01:18:27;;;;;;;11.10;3.03;;;17.30;99.90;;;;;;5070343;28;20044;-50
2023/07/13 01:20:59;;;;;;;13.13;2.90;;;17.20;99.90;;;;;;5069574;28;20484;-46
2023/07/13 01:23:26;;;;;;;11.30;2.90;;;17.20;99.90;;;;;;5070006;28;20113;-47
2023/07/13 01:25:53;;;;;;;13.68;2.95;;;17.20;99.90;;;;;;5070473;28;20040;-47
2023/07/13 01:28:19;;;;;;;10.18;2.63;;;17.20;99.90;;;;;;5070417;28;20043;-48
2023/07/13 01:30:46;;;;;;;13.52;3.08;;;17.20;99.90;;;;;;5070018;28;20548;-47
2023/07/13 01:33:13;;;;;;;11.00;2.67;;;17.20;99.90;;;;;;5070485;28;20055;-49
2023/07/13 01:35:39;;;;;;;12.32;2.65;;;17.20;99.90;;;;;;5069976;28;20490;-48
2023/07/13 01:38:05;;;;;;;12.20;2.63;;;17.10;99.90;;;;;;5069959;28;20080;-50
2023/07/13 01:40:31;;;;;;;8.13;2.60;;;17.10;99.90;;;;;;5069754;28;20088;-48
2023/07/13 01:42:58;;;;;;;10.30;3.20;;;17.00;99.90;;;;;;5072035;28;20356;-48
2023/07/13 01:45:24;;;;;;;7.57;2.70;;;17.00;99.90;;;;;;5074257;28;20414;-50
2023/07/13 01:47:50;;;;;;;12.13;3.35;;;16.90;99.90;;;;;;5073185;28;20048;-45
2023/07/13 01:50:16;;;;;;;9.27;2.90;;;16.90;99.90;;;;;;5073516;28;20042;-48
2023/07/13 01:52:41;;;;;;;12.68;3.00;;;16.80;99.90;;;;;;5074101;28;20111;-47
2023/07/13 01:55:08;;;;;;;9.13;2.60;;;16.80;99.90;;;;;;5073357;28;20394;-47
2023/07/13 01:57:33;;;;;;;12.80;2.85;;;16.80;99.90;;;;;;5072124;28;20086;-48
2023/07/13 02:00:01;;;;;;;11.57;3.10;;;16.70;99.90;;;;;;5073844;28;20075;-45
2023/07/13 02:02:26;;;;;;;13.05;3.03;;;16.70;99.90;;;;;;5073453;28;20573;-51
2023/07/13 02:04:52;;;;;;;11.85;3.13;;;16.70;99.90;;;;;;5072255;28;20068;-50
2023/07/13 02:07:18;;;;;;;9.07;2.80;;;16.60;99.90;;;;;;5073096;28;20041;-49
2023/07/13 02:09:43;;;;;;;13.32;3.10;;;16.60;99.90;;;;;;5073229;28;20093;-50
2023/07/13 02:12:09;;;;;;;11.55;2.78;;;16.50;99.90;;;;;;5073523;28;20033;-47
2023/07/13 02:14:35;;;;;;;10.65;3.22;;;16.50;99.90;;;;;;5073243;28;20040;-47
2023/07/13 02:17:00;;;;;;;11.15;2.88;;;16.50;99.90;;;;;;5072124;28;20060;-46
2023/07/13 02:19:26;;;;;;;11.15;2.67;;;16.40;99.90;;;;;;5072668;28;20045;-51
2023/07/13 02:21:52;;;;;;;15.05;3.20;;;16.40;99.90;;;;;;5073192;28;20464;-48
2023/07/13 02:24:19;;;;;;;9.63;2.90;;;16.40;99.90;;;;;;5072951;28;20055;-50
2023/07/13 02:26:45;;;;;;;8.07;2.70;;;16.40;99.90;;;;;;5071787;28;20120;-46
2023/07/13 02:29:11;;;;;;;11.38;3.17;;;16.40;99.90;;;;;;5071797;28;20127;-49
2023/07/13 02:31:37;;;;;;;10.98;2.88;;;16.40;99.90;;;;;;5073145;28;20029;-48
2023/07/13 02:34:04;;;;;;;11.90;2.67;;;16.40;99.90;;;;;;5073000;28;20036;-45
2023/07/13 02:36:31;;;;;;;10.82;2.95;;;16.30;99.90;;;;;;5072576;28;20118;-47
2023/07/13 02:39:01;;;;;;;13.88;3.58;;;16.30;99.90;;;;;;5072650;28;20055;-49
2023/07/13 02:41:26;;;;;;;13.38;3.22;;;16.30;99.90;;;;;;5072621;28;20041;-49
2023/07/13 02:43:52;;;;;;;10.85;2.78;;;16.20;99.90;;;;;;5071565;28;20043;-49
2023/07/13 02:46:19;;;;;;;11.77;3.20;;;16.20;99.90;;;;;;5072689;28;20089;-51
2023/07/13 02:48:45;;;;;;;10.48;2.95;;;16.20;99.90;;;;;;5072921;28;20397;-51
2023/07/13 02:51:11;;;;;;;11.40;2.95;;;16.20;99.90;;;;;;5071773;28;20040;-48
2023/07/13 02:53:37;;;;;;;14.48;3.17;;;16.30;99.90;;;;;;5072503;28;20093;-46
2023/07/13 02:56:04;;;;;;;12.13;3.95;;;16.30;99.90;;;;;;5072218;28;20107;-51
2023/07/13 02:58:30;;;;;;;15.20;3.70;;;16.30;99.90;;;;;;5072446;28;20037;-47
2023/07/13 03:00:57;;;;;;;10.48;2.95;;;16.30;99.90;;;;;;5072371;28;20387;-48
2023/07/13 03:03:23;;;;;;;13.60;3.50;;;16.30;99.90;;;;;;5072557;28;20040;-50
2023/07/13 03:05:59;;;;;;;14.75;3.13;;;16.30;99.90;;;;;;5072288;28;20028;-48
2023/07/13 03:08:25;;;;;;;12.63;2.92;;;16.30;99.90;;;;;;5072430;28;20514;-51
2023/07/13 03:11:00;;;;;;;11.43;3.15;;;16.30;99.90;;;;;;5072224;28;20083;-51
2023/07/13 03:13:26;;;;;;;10.77;3.22;;;16.30;99.90;;;;;;5070738;28;20052;-48
2023/07/13 03:15:52;;;;;;;11.82;3.25;;;16.30;99.90;;;;;;5072075;28;20364;-49
2023/07/13 03:18:17;;;;;;;13.70;3.53;;;16.30;99.90;;;;;;5071820;28;20046;-48
2023/07/13 03:20:43;;;;;;;11.63;3.22;;;16.30;99.90;;;;;;5071293;28;20044;-50
2023/07/13 03:23:09;;;;;;;13.10;3.38;;;16.20;99.90;;;;;;5053834;28;20070;-49
2023/07/13 03:25:35;;;;;;;12.10;3.33;;;16.30;99.90;;;;;;5071954;28;20051;-46
2023/07/13 03:28:00;;;;;;;13.85;3.50;;;16.20;99.90;;;;;;5071172;28;20037;-50
2023/07/13 03:30:26;;;;;;;10.05;3.10;;;16.20;99.90;;;;;;5070153;28;20547;-49
2023/07/13 03:32:52;;;;;;;12.65;3.67;;;16.20;99.90;;;;;;5070729;28;20041;-49
2023/07/13 03:35:18;;;;;;;15.07;4.15;;;16.20;99.90;;;;;;5071520;28;20076;-47
2023/07/13 03:37:43;;;;;;;13.32;3.40;;;16.20;99.90;;;;;;5071432;28;20083;-46
2023/07/13 03:40:10;;;;;;;11.40;3.55;;;16.10;99.90;;;;;;5071692;28;20666;-48
2023/07/13 03:42:36;;;;;;;12.55;3.50;;;16.10;99.90;;;;;;5070393;28;20064;-50
2023/07/13 03:45:02;;;;;;;15.02;3.50;;;16.00;99.90;;;;;;5071354;28;20074;-52
2023/07/13 03:47:27;;;;;;;11.25;3.60;;;16.00;99.90;;;;;;5071151;28;20041;-50
2023/07/13 03:49:53;;;;;;;9.82;3.28;;;16.00;99.90;;;;;;5070561;28;20036;-49
2023/07/13 03:52:19;;;;;;;11.07;3.85;;;16.00;99.90;;;;;;5071499;28;20036;-47
2023/07/13 03:54:44;;;;;;;12.27;3.65;;;16.00;99.90;;;;;;5071212;28;20432;-49
2023/07/13 03:57:10;;;;;;;13.50;3.95;;;15.90;99.90;;;;;;5071181;28;20470;-51
2023/07/13 03:59:36;;;;;;;14.38;3.80;;;15.90;99.90;;;;;;5071167;28;20036;-50
2023/07/13 04:02:04;;;;;;;9.73;3.15;;;15.90;99.90;;;;;;5071000;28;20040;-46
2023/07/13 04:04:30;;;;;;;14.02;4.57;;;15.80;99.90;;;;;;5071063;28;20032;-46
2023/07/13 04:06:59;;;;;;;11.32;3.75;;;15.80;99.90;;;;;;5070115;28;20570;-49
2023/07/13 04:09:25;;;;;;;10.93;3.75;;;15.80;99.90;;;;;;5071170;28;20064;-47
2023/07/13 04:11:51;;;;;;;12.88;3.80;;;15.80;99.90;;;;;;5069667;28;20036;-46
2023/07/13 04:14:17;;;;;;;13.55;3.95;;;15.80;99.90;;;;;;5070916;28;20041;-47
2023/07/13 04:16:43;;;;;;;13.70;4.18;;;15.80;99.90;;;;;;5070943;28;20029;-49
2023/07/13 04:19:10;;;;;;;10.80;3.58;;;15.70;99.90;;;;;;5070716;28;20039;-47
2023/07/13 04:21:36;;;;;;;11.30;3.40;;;15.70;99.90;;;;;;5070886;28;20602;-47
2023/07/13 04:24:02;;;;;;;13.02;4.05;;;15.80;99.90;;;;;;5070760;28;20045;-46
2023/07/13 04:26:29;;;;;;;9.15;2.65;;;15.70;99.90;;;;;;5070969;28;20123;-46
2023/07/13 04:28:54;;;;;;;13.70;3.95;;;15.70;99.90;;;;;;5070738;28;20039;-47
2023/07/13 04:31:21;;;;;;;12.13;4.05;;;15.70;99.90;;;;;;5070714;28;20032;-48
2023/07/13 04:33:47;;;;;;;13.23;3.80;;;15.70;99.90;;;;;;5069963;28;20434;-49
2023/07/13 04:36:12;;;;;;;13.48;3.85;;;15.70;99.90;;;;;;5069335;28;20528;-47
2023/07/13 04:38:38;;;;;;;11.23;3.90;;;15.80;99.90;;;;;;5070939;28;20131;-49
2023/07/13 04:41:06;;;;;;;11.93;3.90;;;15.80;99.90;;;;;;5069653;28;20047;-49
2023/07/13 04:43:32;;;;;;;12.13;3.83;;;15.80;99.90;;;;;;5069436;28;20032;-48
2023/07/13 04:46:05;;;;;;;13.98;3.78;;;15.90;99.90;;;;;;5069420;28;20040;-50
2023/07/13 04:48:31;;;;;;;11.90;3.65;;;15.80;99.90;;;;;;5071009;28;20040;-50
2023/07/13 04:50:58;;;;;;;10.73;3.70;;;15.90;99.90;;;;;;5070200;28;20468;-48
2023/07/13 04:53:24;;;;;;;12.18;3.95;;;15.90;99.90;;;;;;5069625;28;20372;-47
2023/07/13 04:55:50;;;;;;;12.80;3.75;;;15.90;99.90;;;;;;5069266;28;20036;-48
2023/07/13 04:58:16;;;;;;;12.10;4.00;;;16.00;99.90;;;;;;5070817;28;20503;-45
2023/07/13 05:00:41;;;;;;;13.98;4.50;;;16.00;99.90;;;;;;5069987;28;20063;-47
2023/07/13 05:03:07;;;;;;;11.82;3.70;;;16.00;99.90;;;;;;5070720;28;20039;-49
2023/07/13 05:05:33;;;;;;;12.20;3.75;;;16.00;99.90;;;;;;5070077;28;20040;-46
2023/07/13 05:07:59;;;;;;;12.48;4.32;;;16.00;99.90;;;;;;5069092;28;20117;-46
2023/07/13 05:10:25;;;;;;;12.25;4.28;;;16.00;99.90;;;;;;5070520;28;20182;-48
2023/07/13 05:12:51;;;;;;;13.57;4.43;;;16.00;99.90;;;;;;5070318;28;20048;-47
2023/07/13 05:15:20;;;;;;;11.85;4.10;;;16.00;99.90;;;;;;5070227;28;20047;-50
2023/07/13 05:17:49;;;;;;;13.95;4.78;;;16.10;99.90;;;;;;5071746;28;20040;-46
2023/07/13 05:20:17;;;;;;;11.63;3.83;;;16.10;99.90;;;;;;5055751;28;20048;-50
2023/07/13 05:22:43;;;;;;;12.13;3.00;;;16.10;99.90;;;;;;5073980;28;20040;-48
2023/07/13 05:25:09;;;;;;;10.60;4.07;;;16.20;99.90;;;;;;5073931;28;20086;-48
2023/07/13 05:27:35;;;;;;;11.32;4.18;;;16.20;99.90;;;;;;5073938;28;20032;-45
2023/07/13 05:30:03;;;;;;;15.73;4.47;;;16.30;99.90;;;;;;5074238;28;20056;-50
2023/07/13 05:32:29;;;;;;;12.75;4.40;;;16.30;99.90;;;;;;5074113;28;20066;-48
2023/07/13 05:34:54;;;;;;;10.13;4.13;;;16.40;99.90;;;;;;5073757;28;20067;-51
2023/07/13 05:37:20;;;;;;;11.52;4.40;;;16.40;99.90;;;;;;5073490;28;20056;-47
2023/07/13 05:39:46;;;;;;;12.57;4.78;;;16.40;99.90;;;;;;5074143;28;20037;-50
2023/07/13 05:42:12;;;;;;;12.77;4.65;;;16.50;99.90;;;;;;5073693;28;20127;-47
2023/07/13 05:44:37;;;;;;;14.75;4.40;;;16.60;99.90;;;;;;5073762;28;20032;-51
2023/07/13 05:47:03;;;;;;;13.65;4.18;;;16.60;99.90;;;;;;5073744;28;20065;-47
2023/07/13 05:49:30;;;;;;;11.02;3.92;;;16.70;99.90;;;;;;5073489;28;20085;-47
2023/07/13 05:51:56;;;;;;;11.80;4.13;;;16.70;99.90;;;;;;5072250;28;20105;-51
2023/07/13 05:54:22;;;;;;;12.77;4.25;;;16.80;99.90;;;;;;5072134;28;20032;-51
2023/07/13 05:56:48;;;;;;;14.18;4.40;;;16.90;99.90;;;;;;5073638;28;20040;-46
2023/07/13 05:59:13;;;;;;;10.95;4.03;;;17.00;99.90;;;;;;5073710;28;20040;-52
2023/07/13 06:01:39;;;;;;;10.65;4.28;;;17.10;99.90;;;;;;5073608;28;20598;-48
2023/07/13 06:04:05;;;;;;;16.45;3.90;;;17.30;99.90;;;;;;5072515;28;20043;-47
2023/07/13 06:06:30;;;;;;;12.07;3.80;;;17.30;99.90;;;;;;5072277;28;20487;-49
2023/07/13 06:08:56;;;;;;;13.45;4.18;;;17.40;99.90;;;;;;5067983;28;20067;-48
2023/07/13 06:11:24;;;;;;;13.40;4.03;;;17.50;99.90;;;;;;5073932;28;20460;-48
2023/07/13 06:13:50;;;;;;;10.52;3.67;;;17.60;99.90;;;;;;5073763;28;20047;-50
2023/07/13 06:16:17;;;;;;;13.18;4.20;;;17.60;99.90;;;;;;5069665;28;20048;-51
2023/07/13 06:18:43;;;;;;;11.60;4.15;;;17.60;99.90;;;;;;5065332;28;20036;-50
2023/07/13 06:21:20;;;;;;;12.13;4.13;;;17.60;99.90;;;;;;5065357;28;20064;-48
2023/07/13 06:23:49;;;;;;;12.15;4.25;;;17.60;99.90;;;;;;5062296;28;20028;-47
2023/07/13 06:26:16;;;;;;;15.48;4.25;;;17.60;99.90;;;;;;5063705;28;20361;-46
2023/07/13 06:28:43;;;;;;;11.90;3.85;;;17.70;99.90;;;;;;5062780;28;20111;-49
2023/07/13 06:31:11;;;;;;;12.82;3.97;;;17.70;99.90;;;;;;5064345;28;20455;-47
2023/07/13 06:33:37;;;;;;;13.10;4.10;;;17.70;99.90;;;;;;5065499;28;20468;-49
2023/07/13 06:36:04;;;;;;;10.13;4.35;;;17.80;99.90;;;;;;5063505;28;20129;-49
2023/07/13 06:38:31;;;;;;;14.77;4.30;;;17.90;99.90;;;;;;5063385;28;20486;-49
2023/07/13 06:40:56;;;;;;;13.30;4.25;;;17.90;99.90;;;;;;5063798;28;20033;-48
2023/07/13 06:43:24;;;;;;;9.52;3.80;;;17.90;99.90;;;;;;5063118;28;20032;-50
2023/07/13 06:45:50;;;;;;;11.38;3.63;;;17.90;99.90;;;;;;5059178;28;20037;-47
2023/07/13 06:48:18;;;;;;;12.27;4.07;;;17.80;99.90;;;;;;5061304;28;20029;-48
2023/07/13 06:50:44;;;;;;;13.52;4.63;;;17.80;99.90;;;;;;5063811;28;20043;-51
2023/07/13 06:53:11;;;;;;;14.23;4.82;;;17.70;99.90;;;;;;5061877;28;20465;-50
2023/07/13 06:55:37;;;;;;;14.65;4.00;;;17.90;99.90;;;;;;5061506;28;20040;-52
2023/07/13 06:58:03;;;;;;;12.50;4.22;;;17.90;99.90;;;;;;5060700;28;20043;-48
2023/07/13 07:00:29;;;;;;;12.00;4.50;;;17.90;99.90;;;;;;5065059;28;23056;-49
2023/07/13 07:02:54;;;;;;;11.27;4.50;;;17.90;99.90;;;;;;5077924;28;20047;-47
2023/07/13 07:05:21;;;;;;;15.68;4.90;;;18.00;99.90;;;;;;5063967;28;20040;-48
2023/07/13 07:07:49;;;;;;;15.73;4.85;;;18.10;99.90;;;;;;5062457;28;20303;-51
2023/07/13 07:10:15;;;;;;;14.35;4.47;;;18.10;99.90;;;;;;5062188;28;20028;-50
2023/07/13 07:12:40;;;;;;;14.75;4.32;;;18.10;99.90;;;;;;5064857;28;20040;-48
2023/07/13 07:15:06;;;;;;;13.00;5.00;;;18.10;99.90;;;;;;5065174;28;20209;-47
2023/07/13 07:17:32;;;;;;;16.38;5.15;;;18.20;99.90;;;;;;5062663;28;20037;-47
2023/07/13 07:19:58;;;;;;;17.90;5.80;;;18.20;99.90;;;;;;5061792;28;20043;-49
2023/07/13 07:22:26;;;;;;;16.13;6.00;;;18.20;99.90;;;;;;5064127;28;20093;-48
2023/07/13 07:24:52;;;;;;;18.90;5.47;;;18.30;99.90;;;;;;5061613;28;20506;-48
2023/07/13 07:27:18;;;;;;;14.45;5.38;;;18.40;99.90;;;;;;5062365;28;20033;-49
2023/07/13 07:29:44;;;;;;;14.50;6.20;;;18.40;99.90;;;;;;5062048;28;20035;-49
2023/07/13 07:32:10;;;;;;;14.32;5.32;;;18.50;99.90;;;;;;5061663;28;20032;-48
2023/07/13 07:34:35;;;;;;;17.67;5.22;;;18.60;99.90;;;;;;5058565;28;20499;-51
2023/07/13 07:37:02;;;;;;;20.48;5.70;;;18.70;99.90;;;;;;5060826;28;20056;-46
2023/07/13 07:39:28;;;;;;;19.02;5.88;;;18.90;99.90;;;;;;5057977;28;20032;-47
2023/07/13 07:41:54;;;;;;;19.02;5.15;;;18.90;99.90;;;;;;5060638;28;20497;-50
2023/07/13 07:44:20;;;;;;;15.82;5.60;;;18.90;99.90;;;;;;5059135;28;20038;-46
2023/07/13 07:46:46;;;;;;;14.30;4.90;;;19.00;99.90;;;;;;5068654;28;20048;-51
2023/07/13 07:49:12;;;;;;;14.80;4.93;;;19.10;99.90;;;;;;5070083;28;20114;-49
2023/07/13 07:51:37;;;;;;;19.42;5.18;;;19.10;99.90;;;;;;5070146;28;20044;-52
2023/07/13 07:54:04;;;;;;;12.38;4.40;;;19.30;99.90;;;;;;5069350;28;20028;-52
2023/07/13 07:56:30;;;;;;;15.27;4.45;;;19.30;99.90;;;;;;5069792;28;20041;-47
2023/07/13 07:58:56;;;;;;;14.45;5.15;;;19.40;99.90;;;;;;5069271;28;20486;-49
2023/07/13 08:01:22;;;;;;;16.85;4.93;;;19.50;99.90;;;;;;5069679;28;20032;-48
2023/07/13 08:03:48;;;;;;;14.00;5.13;;;19.50;99.90;;;;;;5070770;28;20036;-50
2023/07/13 08:06:14;;;;;;;17.73;5.47;;;19.50;99.90;;;;;;5071154;28;20467;-46
2023/07/13 08:08:40;;;;;;;12.55;5.15;;;19.50;99.90;;;;;;5070424;28;20032;-48
2023/07/13 08:11:08;;;;;;;12.00;4.20;;;19.50;99.90;;;;;;5070836;28;20044;-47
2023/07/13 08:13:34;;;;;;;10.32;3.88;;;19.50;99.90;;;;;;5069207;28;20036;-52
2023/07/13 08:15:59;;;;;;;13.32;4.53;;;19.50;99.90;;;;;;5068858;28;20098;-47
2023/07/13 08:18:25;;;;;;;11.98;4.20;;;19.60;99.90;;;;;;5070674;28;20309;-45
2023/07/13 08:20:51;;;;;;;14.60;5.07;;;19.70;99.90;;;;;;5071763;28;20149;-51
2023/07/13 08:23:18;;;;;;;15.27;4.80;;;19.70;99.90;;;;;;5068314;28;20041;-50
2023/07/13 08:25:51;;;;;;;13.82;4.93;;;19.70;99.90;;;;;;5070236;28;20048;-50
2023/07/13 08:28:17;;;;;;;15.52;5.20;;;19.70;99.90;;;;;;5069904;28;20059;-51
2023/07/13 08:30:42;;;;;;;13.77;5.25;;;19.60;99.90;;;;;;5070542;28;20040;-49
2023/07/13 08:33:08;;;;;;;12.30;5.28;;;19.60;99.90;;;;;;5070266;28;20812;-52
2023/07/13 08:35:34;;;;;;;5.38;1.67;;;19.50;99.90;;;;;;5052170;28;20115;-47
2023/07/13 08:38:00;;;;;;;7.00;2.20;;;19.20;99.90;;;;;;5067270;28;20052;-48
2023/07/13 08:40:27;;;;;;;11.68;4.00;;;18.90;99.90;;;;;;5068905;28;20045;-51
2023/07/13 08:43:01;;;;;;;8.85;2.92;;;18.20;99.90;;;;;;5070709;28;20041;-49
2023/07/13 08:45:43;;;;;;;27.77;5.68;;;17.40;99.90;;;;;;5069035;28;20469;-50
2023/07/13 08:48:17;;;;;;;11.10;2.60;;;16.70;99.90;;;;;;5070448;28;20395;-52
2023/07/13 08:50:54;;;;;;;7.47;3.58;;;16.00;99.90;;;;;;5069788;28;20472;-55
2023/07/13 08:53:23;;;;;;;5.30;2.80;;;15.70;99.90;;;;;;5074558;28;20040;-49
2023/07/13 08:55:57;;;;;;;7.57;3.17;;;15.50;99.90;;;;;;5072264;28;20048;-48
2023/07/13 08:58:28;;;;;;;8.25;2.80;;;15.30;99.90;;;;;;5072239;28;20068;-51
2023/07/13 09:00:58;;;;;;;8.27;3.30;;;15.10;99.90;;;;;;5074294;28;20043;-51
2023/07/13 09:03:29;;;;;;;5.40;3.17;;;15.20;99.90;;;;;;5073769;28;20479;-52
2023/07/13 09:05:58;;;;;;;8.13;2.78;;;15.00;99.90;;;;;;5074316;28;20658;-49
2023/07/13 09:08:34;;;;;;;8.93;2.97;;;15.10;99.90;;;;;;5073445;28;20044;-52
2023/07/13 09:11:18;;;;;;;11.98;3.65;;;14.90;99.90;;;;;;5072992;28;20045;-56
2023/07/13 09:14:01;;;;;;;7.88;3.40;;;15.10;99.90;;;;;;5071124;28;20115;-51
2023/07/13 09:16:27;;;;;;;9.35;4.18;;;15.00;99.90;;;;;;5074375;28;20449;-51
2023/07/13 09:18:59;;;;;;;5.40;2.50;;;15.10;99.90;;;;;;5074779;28;20032;-52
2023/07/13 09:21:40;;;;;;;5.93;3.40;;;15.20;99.90;;;;;;5072246;28;20113;-47
2023/07/13 09:24:40;;;;;;;5.85;2.28;;;15.40;99.90;;;;;;5073825;28;20694;-52
2023/07/13 09:27:22;;;;;;;8.55;4.10;;;15.70;99.90;;;;;;5072526;28;20044;-51
2023/07/13 09:30:01;;;;;;;7.10;4.13;;;15.60;99.90;;;;;;5072331;28;20090;-46
2023/07/13 09:32:28;;;;;;;9.45;5.20;;;15.40;99.90;;;;;;5073510;28;20044;-49
2023/07/13 09:34:55;;;;;;;9.80;5.28;;;15.60;99.90;;;;;;5073283;28;20090;-46
2023/07/13 09:37:28;;;;;;;11.48;6.45;;;16.00;99.90;;;;;;5071476;28;20053;-46
2023/07/13 09:39:55;;;;;;;9.23;6.25;;;15.90;99.90;;;;;;5071927;28;20040;-48
2023/07/13 09:42:22;;;;;;;11.60;5.85;;;16.70;99.90;;;;;;5071893;28;20036;-51
2023/07/13 09:44:54;;;;;;;10.68;6.00;;;16.40;99.90;;;;;;5072989;28;20077;-49
2023/07/13 09:47:25;;;;;;;10.75;5.28;;;16.40;99.90;;;;;;5071285;28;20380;-46
2023/07/13 09:50:06;;;;;;;12.00;6.93;;;16.40;99.90;;;;;;5067700;28;20040;-51
2023/07/13 09:52:44;;;;;;;13.40;8.07;;;16.90;99.90;;;;;;5073592;28;20029;-51
2023/07/13 09:55:38;;;;;;;17.33;7.80;;;17.40;99.90;;;;;;5073773;28;20075;-47
2023/07/13 09:58:10;;;;;;;13.00;11.60;;;17.70;99.90;;;;;;5073348;28;20482;-48
2023/07/13 10:00:36;;;;;;;15.75;12.55;;;18.10;99.90;;;;;;5073609;28;20423;-47
2023/07/13 10:03:21;;;;;;;17.77;12.68;;;18.30;99.90;;;;;;5072811;28;20071;-47
2023/07/13 10:05:50;;;;;;;14.80;9.82;;;18.50;99.90;;;;;;5073441;28;20041;-49
2023/07/13 10:08:29;;;;;;;10.40;5.70;;;19.10;99.90;;;;;;5073109;28;20051;-48
2023/07/13 10:11:00;;;;;;;12.77;6.30;;;18.80;99.90;;;;;;5073617;28;20083;-47
2023/07/13 10:13:28;;;;;;;8.50;5.07;;;18.90;99.90;;;;;;5073099;28;20114;-48
2023/07/13 10:15:57;;;;;;;13.05;7.55;;;19.00;99.90;;;;;;5071645;28;20045;-48
2023/07/13 10:18:24;;;;;;;11.07;7.03;;;19.00;99.90;;;;;;5073117;28;20044;-49
2023/07/13 10:21:13;;;;;;;10.20;4.78;;;19.00;99.90;;;;;;5071665;28;20087;-46
2023/07/13 10:23:39;;;;;;;8.85;4.20;;;18.90;99.90;;;;;;5072590;28;20048;-49
2023/07/13 10:26:14;;;;;;;12.23;5.40;;;18.70;99.90;;;;;;5073281;28;20039;-51
2023/07/13 10:28:45;;;;;;;13.30;7.18;;;18.60;99.90;;;;;;5071446;28;20105;-47
2023/07/13 10:31:14;;;;;;;12.98;6.78;;;18.40;99.90;;;;;;5071556;28;20055;-50
2023/07/13 10:33:40;;;;;;;10.48;6.60;;;18.30;99.90;;;;;;5072896;28;20534;-50
2023/07/13 10:36:23;;;;;;;9.10;4.72;;;18.10;99.90;;;;;;5073017;28;20040;-51
2023/07/13 10:38:51;;;;;;;7.10;3.30;;;18.00;99.90;;;;;;5071466;28;20076;-48
2023/07/13 10:41:22;;;;;;;4.47;2.28;;;17.60;99.90;;;;;;5071455;28;20131;-51
2023/07/13 10:43:51;;;;;;;5.13;2.80;;;17.60;99.90;;;;;;5070786;28;22047;-51
2023/07/13 10:46:20;;;;;;;7.45;3.33;;;17.30;99.90;;;;;;5071046;28;20033;-49
2023/07/13 10:48:52;;;;;;;7.80;3.53;;;17.30;99.90;;;;;;5064529;28;20055;-50
2023/07/13 10:51:21;;;;;;;6.00;3.03;;;17.40;99.90;;;;;;5068477;28;20043;-52
2023/07/13 10:53:47;;;;;;;7.85;3.20;;;17.40;99.90;;;;;;5069313;28;20051;-49
2023/07/13 10:56:30;;;;;;;6.38;2.67;;;17.30;99.90;;;;;;5069548;28;20548;-49
2023/07/13 10:59:35;;;;;;;5.95;3.30;;;17.30;99.90;;;;;;5070566;28;20048;-52
2023/07/13 11:02:04;;;;;;;6.13;3.20;;;17.40;99.90;;;;;;5069373;28;20029;-51
2023/07/13 11:04:42;;;;;;;8.25;3.90;;;17.80;99.90;;;;;;5069839;28;20032;-50
2023/07/13 11:07:20;;;;;;;7.97;4.45;;;18.10;99.90;;;;;;5069459;28;20102;-49
2023/07/13 11:09:51;;;;;;;7.30;4.25;;;18.40;99.90;;;;;;5069072;28;20045;-50
2023/07/13 11:12:20;;;;;;;10.25;4.53;;;18.60;99.90;;;;;;5070063;28;20040;-50
2023/07/13 11:14:54;;;;;;;8.07;3.95;;;18.80;99.90;;;;;;5067968;28;20471;-51
2023/07/13 11:17:34;;;;;;;7.57;4.35;;;18.90;99.90;;;;;;5068895;28;20037;-52
2023/07/13 11:20:21;;;;;;;6.43;3.88;;;19.00;99.90;;;;;;5068521;28;20064;-48
2023/07/13 11:23:10;;;;;;;6.93;3.63;;;19.30;99.90;;;;;;5068429;28;20699;-49
2023/07/13 11:25:37;;;;;;;9.52;4.38;;;19.60;99.90;;;;;;5069354;28;20048;-50
2023/07/13 11:28:12;;;;;;;8.98;4.15;;;19.80;99.90;;;;;;5068378;28;20046;-47
2023/07/13 11:30:55;;;;;;;8.50;3.50;;;20.10;99.90;;;;;;5068878;28;20040;-49
2023/07/13 11:33:20;;;;;;;9.00;3.50;;;20.40;99.90;;;;;;5067919;28;20085;-51
2023/07/13 11:35:51;;;;;;;8.68;3.05;;;20.60;99.90;;;;;;5068276;28;20032;-50
2023/07/13 11:38:21;;;;;;;6.20;2.45;;;20.60;99.90;;;;;;5069017;28;20520;-48
2023/07/13 11:40:50;;;;;;;4.20;1.70;;;20.60;99.90;;;;;;5068560;28;20483;-48
2023/07/13 11:43:16;;;;;;;7.55;1.80;;;20.70;99.90;;;;;;5066908;28;20037;-51
2023/07/13 11:45:45;;;;;;;9.00;1.95;;;20.60;99.90;;;;;;5070787;28;20177;-47
2023/07/13 11:48:31;;;;;;;4.80;1.90;;;20.60;99.90;;;;;;5071175;28;20029;-48
2023/07/13 11:51:05;;;;;;;6.07;1.83;;;20.60;99.90;;;;;;5070884;28;20048;-51
2023/07/13 11:53:44;;;;;;;8.65;1.63;;;20.60;99.90;;;;;;5070918;28;20047;-46
2023/07/13 11:56:10;;;;;;;4.97;1.80;;;20.70;99.90;;;;;;5071276;28;20032;-49
2023/07/13 11:58:36;;;;;;;8.10;2.10;;;20.90;99.90;;;;;;5071057;28;20389;-48
2023/07/13 12:01:05;;;;;;;6.43;1.77;;;21.10;99.90;;;;;;5071248;28;20197;-46
2023/07/13 12:03:32;;;;;;;7.18;1.98;;;21.20;99.90;;;;;;5069893;28;20028;-46
2023/07/13 12:06:01;;;;;;;4.93;1.40;;;21.30;99.90;;;;;;5069694;28;20041;-47
2023/07/13 12:08:28;;;;;;;5.60;1.70;;;21.30;99.90;;;;;;5070536;28;20108;-46
2023/07/13 12:11:05;;;;;;;7.53;2.17;;;21.40;99.90;;;;;;5070390;28;20040;-51
2023/07/13 12:13:39;;;;;;;4.45;1.50;;;21.60;99.90;;;;;;5066185;28;20047;-47
2023/07/13 12:16:11;;;;;;;;;;;21.70;99.90;;;;;;5067352;28;20044;-50
2023/07/13 12:18:38;;;;;;;6.00;1.90;;;21.80;99.90;;;;;;5069200;28;19950;-47
2023/07/13 12:21:05;;;;;;;5.68;1.48;;;21.90;99.90;;;;;;5068696;28;20033;-50
2023/07/13 12:23:34;;;;;;;4.72;1.50;;;21.90;99.90;;;;;;5072423;28;20139;-50
2023/07/13 12:26:03;;;;;;;5.82;1.42;;;22.00;99.90;;;;;;5068869;28;20590;-46
2023/07/13 12:28:56;;;;;;;5.30;1.20;;;22.30;99.90;;;;;;5069149;28;20051;-51
2023/07/13 12:31:33;;;;;;;4.15;1.33;;;22.40;99.90;;;;;;5072858;28;20046;-47
2023/07/13 12:34:14;;;;;;;4.30;1.10;;;22.40;99.90;;;;;;5069218;28;20120;-47
2023/07/13 12:36:49;;;;;;;3.92;1.48;;;22.30;99.90;;;;;;5069925;28;20090;-49
2023/07/13 12:39:36;;;;;;;4.43;1.33;;;22.40;99.90;;;;;;5069475;28;20052;-53
2023/07/13 12:42:28;;;;;;;5.13;1.30;;;22.50;99.90;;;;;;5069615;28;20032;-48
2023/07/13 12:45:04;;;;;;;4.95;1.33;;;22.60;99.90;;;;;;5068558;28;20043;-49
2023/07/13 12:47:30;;;;;;;5.85;1.35;;;22.70;99.90;;;;;;5069918;28;20072;-48
2023/07/13 12:49:58;;;;;;;7.00;1.25;;;22.60;99.90;;;;;;5069116;28;20079;-46